sensor_id;sensor_type;location;lat;lon;timestamp;P1;durP1;ratioP1;P2;durP2;ratioP2
57467;SDS011;43311;51.196;7.518;2023-07-30T00:01:53;7.63;;;4.47;;
57467;SDS011;43311;51.196;7.518;2023-07-30T00:04:21;8.27;;;4.30;;
57467;SDS011;43311;51.196;7.518;2023-07-30T00:06:47;6.30;;;4.22;;
57467;SDS011;43311;51.196;7.518;2023-07-30T00:09:12;7.63;;;4.03;;
57467;SDS011;43311;51.196;7.518;2023-07-30T00:11:38;6.35;;;3.88;;
57467;SDS011;43311;51.196;7.518;2023-07-30T00:14:03;6.82;;;4.07;;
57467;SDS011;43311;51.196;7.518;2023-07-30T00:16:29;7.40;;;4.43;;
57467;SDS011;43311;51.196;7.518;2023-07-30T00:18:55;8.50;;;3.85;;
57467;SDS011;43311;51.196;7.518;2023-07-30T00:21:20;10.73;;;3.65;;
57467;SDS011;43311;51.196;7.518;2023-07-30T00:23:45;7.47;;;3.90;;
57467;SDS011;43311;51.196;7.518;2023-07-30T00:26:11;5.38;;;3.30;;
57467;SDS011;43311;51.196;7.518;2023-07-30T00:28:36;7.15;;;3.22;;
57467;SDS011;43311;51.196;7.518;2023-07-30T00:31:02;7.10;;;3.50;;
57467;SDS011;43311;51.196;7.518;2023-07-30T00:33:27;5.85;;;3.40;;
57467;SDS011;43311;51.196;7.518;2023-07-30T00:35:52;9.93;;;3.75;;
57467;SDS011;43311;51.196;7.518;2023-07-30T00:38:18;7.07;;;3.30;;
57467;SDS011;43311;51.196;7.518;2023-07-30T00:40:48;7.97;;;3.20;;
57467;SDS011;43311;51.196;7.518;2023-07-30T00:43:14;5.68;;;3.72;;
57467;SDS011;43311;51.196;7.518;2023-07-30T00:45:40;4.95;;;3.20;;
57467;SDS011;43311;51.196;7.518;2023-07-30T00:48:07;9.17;;;3.67;;
57467;SDS011;43311;51.196;7.518;2023-07-30T00:50:34;7.38;;;3.80;;
57467;SDS011;43311;51.196;7.518;2023-07-30T00:53:00;7.85;;;3.65;;
57467;SDS011;43311;51.196;7.518;2023-07-30T00:55:25;7.68;;;4.20;;
57467;SDS011;43311;51.196;7.518;2023-07-30T00:57:51;5.70;;;3.78;;
57467;SDS011;43311;51.196;7.518;2023-07-30T01:00:17;8.65;;;4.03;;
57467;SDS011;43311;51.196;7.518;2023-07-30T01:02:43;6.55;;;4.15;;
57467;SDS011;43311;51.196;7.518;2023-07-30T01:05:09;8.60;;;4.20;;
57467;SDS011;43311;51.196;7.518;2023-07-30T01:07:34;8.40;;;4.32;;
57467;SDS011;43311;51.196;7.518;2023-07-30T01:10:00;7.20;;;4.20;;
57467;SDS011;43311;51.196;7.518;2023-07-30T01:12:26;6.65;;;4.78;;
57467;SDS011;43311;51.196;7.518;2023-07-30T01:14:54;6.47;;;4.07;;
57467;SDS011;43311;51.196;7.518;2023-07-30T01:17:21;6.07;;;4.10;;
57467;SDS011;43311;51.196;7.518;2023-07-30T01:19:47;11.18;;;4.43;;
57467;SDS011;43311;51.196;7.518;2023-07-30T01:22:14;8.40;;;4.20;;
57467;SDS011;43311;51.196;7.518;2023-07-30T01:24:40;10.57;;;4.25;;
57467;SDS011;43311;51.196;7.518;2023-07-30T01:27:07;10.75;;;3.97;;
57467;SDS011;43311;51.196;7.518;2023-07-30T01:29:42;9.80;;;4.47;;
57467;SDS011;43311;51.196;7.518;2023-07-30T01:32:20;8.35;;;4.22;;
57467;SDS011;43311;51.196;7.518;2023-07-30T01:34:51;7.43;;;4.40;;
57467;SDS011;43311;51.196;7.518;2023-07-30T01:37:17;9.48;;;3.80;;
57467;SDS011;43311;51.196;7.518;2023-07-30T01:39:44;8.52;;;3.92;;
57467;SDS011;43311;51.196;7.518;2023-07-30T01:42:13;10.98;;;4.60;;
57467;SDS011;43311;51.196;7.518;2023-07-30T01:44:39;8.73;;;3.88;;
57467;SDS011;43311;51.196;7.518;2023-07-30T01:47:05;9.40;;;4.32;;
57467;SDS011;43311;51.196;7.518;2023-07-30T01:49:30;7.82;;;3.72;;
57467;SDS011;43311;51.196;7.518;2023-07-30T01:51:56;7.07;;;3.58;;
57467;SDS011;43311;51.196;7.518;2023-07-30T01:54:21;7.53;;;3.67;;
57467;SDS011;43311;51.196;7.518;2023-07-30T01:56:47;10.23;;;4.18;;
57467;SDS011;43311;51.196;7.518;2023-07-30T01:59:13;8.80;;;4.18;;
57467;SDS011;43311;51.196;7.518;2023-07-30T02:01:38;10.63;;;4.35;;
57467;SDS011;43311;51.196;7.518;2023-07-30T02:04:04;8.48;;;4.47;;
57467;SDS011;43311;51.196;7.518;2023-07-30T02:06:29;8.93;;;4.85;;
57467;SDS011;43311;51.196;7.518;2023-07-30T02:08:55;7.00;;;4.45;;
57467;SDS011;43311;51.196;7.518;2023-07-30T02:11:20;9.23;;;4.50;;
57467;SDS011;43311;51.196;7.518;2023-07-30T02:13:46;9.98;;;4.28;;
57467;SDS011;43311;51.196;7.518;2023-07-30T02:16:12;11.02;;;4.38;;
57467;SDS011;43311;51.196;7.518;2023-07-30T02:18:37;10.27;;;4.60;;
57467;SDS011;43311;51.196;7.518;2023-07-30T02:21:03;7.38;;;4.28;;
57467;SDS011;43311;51.196;7.518;2023-07-30T02:23:28;11.77;;;4.82;;
57467;SDS011;43311;51.196;7.518;2023-07-30T02:25:53;11.30;;;4.53;;
57467;SDS011;43311;51.196;7.518;2023-07-30T02:28:19;10.48;;;4.53;;
57467;SDS011;43311;51.196;7.518;2023-07-30T02:30:45;8.95;;;4.10;;
57467;SDS011;43311;51.196;7.518;2023-07-30T02:33:10;7.70;;;4.43;;
57467;SDS011;43311;51.196;7.518;2023-07-30T02:35:35;8.40;;;3.60;;
57467;SDS011;43311;51.196;7.518;2023-07-30T02:38:01;8.98;;;3.60;;
57467;SDS011;43311;51.196;7.518;2023-07-30T02:40:26;8.18;;;3.28;;
57467;SDS011;43311;51.196;7.518;2023-07-30T02:42:52;8.93;;;4.03;;
57467;SDS011;43311;51.196;7.518;2023-07-30T02:45:18;6.85;;;3.20;;
57467;SDS011;43311;51.196;7.518;2023-07-30T02:47:44;6.40;;;3.30;;
57467;SDS011;43311;51.196;7.518;2023-07-30T02:50:09;6.82;;;3.00;;
57467;SDS011;43311;51.196;7.518;2023-07-30T02:52:35;7.97;;;3.20;;
57467;SDS011;43311;51.196;7.518;2023-07-30T02:55:00;8.68;;;3.33;;
57467;SDS011;43311;51.196;7.518;2023-07-30T02:57:25;14.80;;;3.40;;
57467;SDS011;43311;51.196;7.518;2023-07-30T02:59:51;7.38;;;3.05;;
57467;SDS011;43311;51.196;7.518;2023-07-30T03:02:16;8.20;;;3.25;;
57467;SDS011;43311;51.196;7.518;2023-07-30T03:04:42;4.57;;;2.58;;
57467;SDS011;43311;51.196;7.518;2023-07-30T03:07:09;6.47;;;2.75;;
57467;SDS011;43311;51.196;7.518;2023-07-30T03:09:34;9.38;;;2.97;;
57467;SDS011;43311;51.196;7.518;2023-07-30T03:12:00;9.40;;;3.03;;
57467;SDS011;43311;51.196;7.518;2023-07-30T03:14:25;9.88;;;2.63;;
57467;SDS011;43311;51.196;7.518;2023-07-30T03:16:51;12.90;;;3.25;;
57467;SDS011;43311;51.196;7.518;2023-07-30T03:19:16;8.05;;;3.05;;
57467;SDS011;43311;51.196;7.518;2023-07-30T03:21:42;10.15;;;4.18;;
57467;SDS011;43311;51.196;7.518;2023-07-30T03:24:07;8.88;;;3.75;;
57467;SDS011;43311;51.196;7.518;2023-07-30T03:26:33;6.78;;;3.22;;
57467;SDS011;43311;51.196;7.518;2023-07-30T03:28:59;8.05;;;3.60;;
57467;SDS011;43311;51.196;7.518;2023-07-30T03:31:24;11.93;;;3.65;;
57467;SDS011;43311;51.196;7.518;2023-07-30T03:33:51;8.77;;;3.47;;
57467;SDS011;43311;51.196;7.518;2023-07-30T03:36:17;7.10;;;3.13;;
57467;SDS011;43311;51.196;7.518;2023-07-30T03:38:42;8.70;;;2.90;;
57467;SDS011;43311;51.196;7.518;2023-07-30T03:41:08;8.73;;;3.05;;
57467;SDS011;43311;51.196;7.518;2023-07-30T03:43:38;7.15;;;3.80;;
57467;SDS011;43311;51.196;7.518;2023-07-30T03:48:29;8.93;;;3.35;;
57467;SDS011;43311;51.196;7.518;2023-07-30T03:50:55;9.60;;;3.33;;
57467;SDS011;43311;51.196;7.518;2023-07-30T03:53:21;5.80;;;2.92;;
57467;SDS011;43311;51.196;7.518;2023-07-30T03:55:47;7.40;;;3.00;;
57467;SDS011;43311;51.196;7.518;2023-07-30T03:58:13;8.18;;;2.85;;
57467;SDS011;43311;51.196;7.518;2023-07-30T04:00:39;11.13;;;3.25;;
57467;SDS011;43311;51.196;7.518;2023-07-30T04:03:05;9.43;;;3.90;;
57467;SDS011;43311;51.196;7.518;2023-07-30T04:05:31;7.18;;;3.35;;
57467;SDS011;43311;51.196;7.518;2023-07-30T04:07:56;6.80;;;3.50;;
57467;SDS011;43311;51.196;7.518;2023-07-30T04:10:22;6.47;;;3.35;;
57467;SDS011;43311;51.196;7.518;2023-07-30T04:12:47;7.38;;;3.47;;
57467;SDS011;43311;51.196;7.518;2023-07-30T04:15:14;8.43;;;3.30;;
57467;SDS011;43311;51.196;7.518;2023-07-30T04:17:40;6.57;;;3.20;;
57467;SDS011;43311;51.196;7.518;2023-07-30T04:20:05;9.27;;;3.10;;
57467;SDS011;43311;51.196;7.518;2023-07-30T04:22:31;10.05;;;3.35;;
57467;SDS011;43311;51.196;7.518;2023-07-30T04:24:57;10.30;;;3.72;;
57467;SDS011;43311;51.196;7.518;2023-07-30T04:27:22;12.32;;;3.35;;
57467;SDS011;43311;51.196;7.518;2023-07-30T04:29:48;6.50;;;2.72;;
57467;SDS011;43311;51.196;7.518;2023-07-30T04:32:16;12.07;;;3.45;;
57467;SDS011;43311;51.196;7.518;2023-07-30T04:34:42;5.55;;;2.67;;
57467;SDS011;43311;51.196;7.518;2023-07-30T04:37:07;7.05;;;2.90;;
57467;SDS011;43311;51.196;7.518;2023-07-30T04:39:35;7.85;;;2.60;;
57467;SDS011;43311;51.196;7.518;2023-07-30T04:42:01;6.60;;;2.78;;
57467;SDS011;43311;51.196;7.518;2023-07-30T04:44:27;6.70;;;2.35;;
57467;SDS011;43311;51.196;7.518;2023-07-30T04:46:55;7.05;;;3.17;;
57467;SDS011;43311;51.196;7.518;2023-07-30T04:49:23;8.68;;;2.50;;
57467;SDS011;43311;51.196;7.518;2023-07-30T04:51:49;5.93;;;2.70;;
57467;SDS011;43311;51.196;7.518;2023-07-30T04:54:16;8.05;;;2.65;;
57467;SDS011;43311;51.196;7.518;2023-07-30T04:56:41;9.93;;;3.17;;
57467;SDS011;43311;51.196;7.518;2023-07-30T04:59:07;7.60;;;2.60;;
57467;SDS011;43311;51.196;7.518;2023-07-30T05:01:35;7.95;;;2.63;;
57467;SDS011;43311;51.196;7.518;2023-07-30T05:04:01;7.85;;;2.72;;
57467;SDS011;43311;51.196;7.518;2023-07-30T05:06:28;9.03;;;2.40;;
57467;SDS011;43311;51.196;7.518;2023-07-30T05:08:54;5.68;;;2.20;;
57467;SDS011;43311;51.196;7.518;2023-07-30T05:11:19;9.30;;;2.85;;
57467;SDS011;43311;51.196;7.518;2023-07-30T05:13:45;9.68;;;2.15;;
57467;SDS011;43311;51.196;7.518;2023-07-30T05:16:10;8.77;;;2.25;;
57467;SDS011;43311;51.196;7.518;2023-07-30T05:18:35;7.40;;;2.03;;
57467;SDS011;43311;51.196;7.518;2023-07-30T05:21:01;8.95;;;2.35;;
57467;SDS011;43311;51.196;7.518;2023-07-30T05:23:26;6.72;;;2.05;;
57467;SDS011;43311;51.196;7.518;2023-07-30T05:25:51;6.93;;;2.10;;
57467;SDS011;43311;51.196;7.518;2023-07-30T05:28:17;9.45;;;2.38;;
57467;SDS011;43311;51.196;7.518;2023-07-30T05:30:42;5.68;;;2.35;;
57467;SDS011;43311;51.196;7.518;2023-07-30T05:33:08;11.05;;;2.08;;
57467;SDS011;43311;51.196;7.518;2023-07-30T05:35:34;5.38;;;1.95;;
57467;SDS011;43311;51.196;7.518;2023-07-30T05:37:59;7.85;;;2.13;;
57467;SDS011;43311;51.196;7.518;2023-07-30T05:40:25;5.93;;;2.28;;
57467;SDS011;43311;51.196;7.518;2023-07-30T05:42:50;4.20;;;1.60;;
57467;SDS011;43311;51.196;7.518;2023-07-30T05:45:16;5.28;;;1.40;;
57467;SDS011;43311;51.196;7.518;2023-07-30T05:47:41;5.32;;;1.85;;
57467;SDS011;43311;51.196;7.518;2023-07-30T05:50:07;4.60;;;1.30;;
57467;SDS011;43311;51.196;7.518;2023-07-30T05:52:33;3.88;;;1.95;;
57467;SDS011;43311;51.196;7.518;2023-07-30T05:54:59;6.03;;;1.45;;
57467;SDS011;43311;51.196;7.518;2023-07-30T05:57:24;5.72;;;1.50;;
57467;SDS011;43311;51.196;7.518;2023-07-30T05:59:50;4.28;;;1.58;;
57467;SDS011;43311;51.196;7.518;2023-07-30T06:02:16;5.72;;;1.58;;
57467;SDS011;43311;51.196;7.518;2023-07-30T06:04:42;6.82;;;1.55;;
57467;SDS011;43311;51.196;7.518;2023-07-30T06:07:07;7.28;;;1.95;;
57467;SDS011;43311;51.196;7.518;2023-07-30T06:09:33;4.88;;;1.42;;
57467;SDS011;43311;51.196;7.518;2023-07-30T06:11:58;6.68;;;1.33;;
57467;SDS011;43311;51.196;7.518;2023-07-30T06:14:24;7.93;;;1.50;;
57467;SDS011;43311;51.196;7.518;2023-07-30T06:16:50;8.73;;;1.40;;
57467;SDS011;43311;51.196;7.518;2023-07-30T06:19:16;7.97;;;1.52;;
57467;SDS011;43311;51.196;7.518;2023-07-30T06:21:42;3.03;;;1.38;;
57467;SDS011;43311;51.196;7.518;2023-07-30T06:24:07;5.30;;;1.45;;
57467;SDS011;43311;51.196;7.518;2023-07-30T06:26:32;4.45;;;1.60;;
57467;SDS011;43311;51.196;7.518;2023-07-30T06:28:58;6.55;;;1.48;;
57467;SDS011;43311;51.196;7.518;2023-07-30T06:31:23;4.55;;;1.27;;
57467;SDS011;43311;51.196;7.518;2023-07-30T06:34:04;5.65;;;1.23;;
57467;SDS011;43311;51.196;7.518;2023-07-30T06:36:31;6.65;;;2.08;;
57467;SDS011;43311;51.196;7.518;2023-07-30T06:38:57;5.50;;;1.60;;
57467;SDS011;43311;51.196;7.518;2023-07-30T06:41:22;9.02;;;2.13;;
57467;SDS011;43311;51.196;7.518;2023-07-30T06:43:47;5.93;;;1.70;;
57467;SDS011;43311;51.196;7.518;2023-07-30T06:46:13;6.35;;;1.65;;
57467;SDS011;43311;51.196;7.518;2023-07-30T06:48:38;4.63;;;1.90;;
57467;SDS011;43311;51.196;7.518;2023-07-30T06:51:05;5.43;;;1.63;;
57467;SDS011;43311;51.196;7.518;2023-07-30T06:53:31;10.88;;;2.22;;
57467;SDS011;43311;51.196;7.518;2023-07-30T06:55:56;8.52;;;1.95;;
57467;SDS011;43311;51.196;7.518;2023-07-30T06:58:22;5.25;;;2.47;;
57467;SDS011;43311;51.196;7.518;2023-07-30T07:00:47;7.60;;;2.47;;
57467;SDS011;43311;51.196;7.518;2023-07-30T07:03:12;8.93;;;2.50;;
57467;SDS011;43311;51.196;7.518;2023-07-30T07:05:38;13.00;;;2.78;;
57467;SDS011;43311;51.196;7.518;2023-07-30T07:08:03;5.28;;;2.55;;
57467;SDS011;43311;51.196;7.518;2023-07-30T07:10:29;9.82;;;2.60;;
57467;SDS011;43311;51.196;7.518;2023-07-30T07:12:54;7.80;;;2.35;;
57467;SDS011;43311;51.196;7.518;2023-07-30T07:15:20;4.75;;;1.50;;
57467;SDS011;43311;51.196;7.518;2023-07-30T07:17:45;7.47;;;2.15;;
57467;SDS011;43311;51.196;7.518;2023-07-30T07:20:10;9.57;;;2.05;;
57467;SDS011;43311;51.196;7.518;2023-07-30T07:22:36;7.07;;;1.92;;
57467;SDS011;43311;51.196;7.518;2023-07-30T07:25:02;6.90;;;2.30;;
57467;SDS011;43311;51.196;7.518;2023-07-30T07:27:28;7.40;;;2.13;;
57467;SDS011;43311;51.196;7.518;2023-07-30T07:29:54;6.78;;;2.80;;
57467;SDS011;43311;51.196;7.518;2023-07-30T07:32:19;9.90;;;2.20;;
57467;SDS011;43311;51.196;7.518;2023-07-30T07:34:45;11.02;;;2.78;;
57467;SDS011;43311;51.196;7.518;2023-07-30T07:37:12;6.93;;;1.80;;
57467;SDS011;43311;51.196;7.518;2023-07-30T07:39:40;5.47;;;1.90;;
57467;SDS011;43311;51.196;7.518;2023-07-30T07:42:05;7.40;;;2.80;;
57467;SDS011;43311;51.196;7.518;2023-07-30T07:44:31;6.47;;;2.90;;
57467;SDS011;43311;51.196;7.518;2023-07-30T07:46:57;7.93;;;2.53;;
57467;SDS011;43311;51.196;7.518;2023-07-30T07:49:22;11.60;;;2.97;;
57467;SDS011;43311;51.196;7.518;2023-07-30T07:51:47;11.55;;;3.00;;
57467;SDS011;43311;51.196;7.518;2023-07-30T07:54:13;7.38;;;2.58;;
57467;SDS011;43311;51.196;7.518;2023-07-30T07:56:38;6.68;;;2.67;;
57467;SDS011;43311;51.196;7.518;2023-07-30T07:59:13;9.25;;;2.40;;
57467;SDS011;43311;51.196;7.518;2023-07-30T08:01:38;10.02;;;2.72;;
57467;SDS011;43311;51.196;7.518;2023-07-30T08:04:04;13.25;;;2.42;;
57467;SDS011;43311;51.196;7.518;2023-07-30T08:06:31;8.18;;;2.38;;
57467;SDS011;43311;51.196;7.518;2023-07-30T08:08:56;9.07;;;2.90;;
57467;SDS011;43311;51.196;7.518;2023-07-30T08:11:22;9.68;;;2.35;;
57467;SDS011;43311;51.196;7.518;2023-07-30T08:13:47;7.22;;;2.22;;
57467;SDS011;43311;51.196;7.518;2023-07-30T08:16:12;9.07;;;2.45;;
57467;SDS011;43311;51.196;7.518;2023-07-30T08:18:38;6.65;;;2.15;;
57467;SDS011;43311;51.196;7.518;2023-07-30T08:21:03;6.05;;;2.00;;
57467;SDS011;43311;51.196;7.518;2023-07-30T08:23:28;9.05;;;2.38;;
57467;SDS011;43311;51.196;7.518;2023-07-30T08:25:54;9.60;;;2.72;;
57467;SDS011;43311;51.196;7.518;2023-07-30T08:28:19;4.82;;;2.40;;
57467;SDS011;43311;51.196;7.518;2023-07-30T08:30:45;6.43;;;1.80;;
57467;SDS011;43311;51.196;7.518;2023-07-30T08:33:11;9.88;;;2.70;;
57467;SDS011;43311;51.196;7.518;2023-07-30T08:35:36;8.52;;;2.13;;
57467;SDS011;43311;51.196;7.518;2023-07-30T08:38:01;11.77;;;2.30;;
57467;SDS011;43311;51.196;7.518;2023-07-30T08:40:27;6.15;;;2.15;;
57467;SDS011;43311;51.196;7.518;2023-07-30T08:42:53;8.00;;;2.63;;
57467;SDS011;43311;51.196;7.518;2023-07-30T08:45:19;13.60;;;2.28;;
57467;SDS011;43311;51.196;7.518;2023-07-30T08:47:45;11.35;;;2.75;;
57467;SDS011;43311;51.196;7.518;2023-07-30T08:50:12;7.97;;;2.60;;
57467;SDS011;43311;51.196;7.518;2023-07-30T08:52:38;7.13;;;2.70;;
57467;SDS011;43311;51.196;7.518;2023-07-30T08:55:04;10.45;;;2.78;;
57467;SDS011;43311;51.196;7.518;2023-07-30T08:57:30;7.97;;;2.42;;
57467;SDS011;43311;51.196;7.518;2023-07-30T09:00:05;8.27;;;2.53;;
57467;SDS011;43311;51.196;7.518;2023-07-30T09:02:49;7.57;;;2.55;;
57467;SDS011;43311;51.196;7.518;2023-07-30T09:05:17;9.48;;;2.42;;
57467;SDS011;43311;51.196;7.518;2023-07-30T09:07:45;7.75;;;2.30;;
57467;SDS011;43311;51.196;7.518;2023-07-30T09:10:10;6.43;;;2.55;;
57467;SDS011;43311;51.196;7.518;2023-07-30T09:12:37;8.25;;;2.70;;
57467;SDS011;43311;51.196;7.518;2023-07-30T09:15:02;10.52;;;2.40;;
57467;SDS011;43311;51.196;7.518;2023-07-30T09:17:32;9.88;;;2.47;;
57467;SDS011;43311;51.196;7.518;2023-07-30T09:20:02;9.13;;;2.42;;
57467;SDS011;43311;51.196;7.518;2023-07-30T09:22:29;8.77;;;2.72;;
57467;SDS011;43311;51.196;7.518;2023-07-30T09:24:58;9.82;;;2.75;;
57467;SDS011;43311;51.196;7.518;2023-07-30T09:27:27;11.73;;;2.40;;
57467;SDS011;43311;51.196;7.518;2023-07-30T09:29:54;9.80;;;2.97;;
57467;SDS011;43311;51.196;7.518;2023-07-30T09:32:25;11.00;;;2.90;;
57467;SDS011;43311;51.196;7.518;2023-07-30T09:34:54;9.75;;;2.17;;
57467;SDS011;43311;51.196;7.518;2023-07-30T09:37:20;10.45;;;2.78;;
57467;SDS011;43311;51.196;7.518;2023-07-30T09:39:47;7.72;;;2.95;;
57467;SDS011;43311;51.196;7.518;2023-07-30T09:42:13;11.80;;;2.70;;
57467;SDS011;43311;51.196;7.518;2023-07-30T09:44:38;10.93;;;2.60;;
57467;SDS011;43311;51.196;7.518;2023-07-30T09:47:09;10.60;;;2.90;;
57467;SDS011;43311;51.196;7.518;2023-07-30T09:49:36;8.95;;;2.67;;
57467;SDS011;43311;51.196;7.518;2023-07-30T09:52:03;9.48;;;2.67;;
57467;SDS011;43311;51.196;7.518;2023-07-30T09:54:30;8.55;;;2.70;;
57467;SDS011;43311;51.196;7.518;2023-07-30T09:56:56;11.70;;;2.60;;
57467;SDS011;43311;51.196;7.518;2023-07-30T09:59:25;7.68;;;2.45;;
57467;SDS011;43311;51.196;7.518;2023-07-30T10:01:50;11.20;;;3.05;;
57467;SDS011;43311;51.196;7.518;2023-07-30T10:04:21;10.02;;;2.80;;
57467;SDS011;43311;51.196;7.518;2023-07-30T10:06:56;8.48;;;2.60;;
57467;SDS011;43311;51.196;7.518;2023-07-30T10:11:55;6.72;;;1.95;;
57467;SDS011;43311;51.196;7.518;2023-07-30T10:14:24;15.73;;;2.80;;
57467;SDS011;43311;51.196;7.518;2023-07-30T10:16:54;9.10;;;2.45;;
57467;SDS011;43311;51.196;7.518;2023-07-30T10:19:27;5.63;;;2.22;;
57467;SDS011;43311;51.196;7.518;2023-07-30T10:22:39;8.10;;;2.30;;
57467;SDS011;43311;51.196;7.518;2023-07-30T10:24:43;7.82;;;2.30;;
57467;SDS011;43311;51.196;7.518;2023-07-30T10:27:24;6.82;;;1.85;;
57467;SDS011;43311;51.196;7.518;2023-07-30T10:30:07;7.72;;;2.17;;
57467;SDS011;43311;51.196;7.518;2023-07-30T10:32:41;11.50;;;2.92;;
57467;SDS011;43311;51.196;7.518;2023-07-30T10:35:07;12.07;;;2.67;;
57467;SDS011;43311;51.196;7.518;2023-07-30T10:37:33;9.30;;;2.00;;
57467;SDS011;43311;51.196;7.518;2023-07-30T10:39:58;7.75;;;2.33;;
57467;SDS011;43311;51.196;7.518;2023-07-30T10:42:24;4.28;;;1.70;;
57467;SDS011;43311;51.196;7.518;2023-07-30T10:44:58;9.50;;;1.63;;
57467;SDS011;43311;51.196;7.518;2023-07-30T10:47:26;6.97;;;1.75;;
57467;SDS011;43311;51.196;7.518;2023-07-30T10:49:52;10.50;;;2.30;;
57467;SDS011;43311;51.196;7.518;2023-07-30T10:52:19;6.15;;;1.70;;
57467;SDS011;43311;51.196;7.518;2023-07-30T10:54:48;8.40;;;1.95;;
57467;SDS011;43311;51.196;7.518;2023-07-30T10:57:14;10.35;;;1.77;;
57467;SDS011;43311;51.196;7.518;2023-07-30T10:59:39;9.00;;;1.65;;
57467;SDS011;43311;51.196;7.518;2023-07-30T11:02:04;6.63;;;1.90;;
57467;SDS011;43311;51.196;7.518;2023-07-30T11:04:33;7.97;;;2.15;;
57467;SDS011;43311;51.196;7.518;2023-07-30T11:06:59;4.15;;;1.45;;
57467;SDS011;43311;51.196;7.518;2023-07-30T11:09:26;6.60;;;1.55;;
57467;SDS011;43311;51.196;7.518;2023-07-30T11:11:56;5.38;;;1.30;;
57467;SDS011;43311;51.196;7.518;2023-07-30T11:14:22;7.35;;;1.60;;
57467;SDS011;43311;51.196;7.518;2023-07-30T11:19:26;4.97;;;1.35;;
57467;SDS011;43311;51.196;7.518;2023-07-30T11:21:53;6.70;;;1.63;;
57467;SDS011;43311;51.196;7.518;2023-07-30T11:24:19;7.28;;;1.75;;
57467;SDS011;43311;51.196;7.518;2023-07-30T11:26:46;5.50;;;1.50;;
57467;SDS011;43311;51.196;7.518;2023-07-30T11:29:22;4.60;;;1.30;;
57467;SDS011;43311;51.196;7.518;2023-07-30T11:31:47;4.32;;;1.45;;
57467;SDS011;43311;51.196;7.518;2023-07-30T11:34:13;4.00;;;1.55;;
57467;SDS011;43311;51.196;7.518;2023-07-30T11:36:40;5.13;;;1.23;;
57467;SDS011;43311;51.196;7.518;2023-07-30T11:39:08;6.03;;;1.40;;
57467;SDS011;43311;51.196;7.518;2023-07-30T11:41:35;5.40;;;1.13;;
57467;SDS011;43311;51.196;7.518;2023-07-30T11:44:01;4.03;;;1.10;;
57467;SDS011;43311;51.196;7.518;2023-07-30T11:46:27;5.47;;;1.15;;
57467;SDS011;43311;51.196;7.518;2023-07-30T11:49:10;5.93;;;1.53;;
57467;SDS011;43311;51.196;7.518;2023-07-30T11:51:38;7.88;;;1.63;;
57467;SDS011;43311;51.196;7.518;2023-07-30T11:54:04;6.65;;;1.38;;
57467;SDS011;43311;51.196;7.518;2023-07-30T11:56:32;6.30;;;1.30;;
57467;SDS011;43311;51.196;7.518;2023-07-30T11:59:01;7.13;;;1.48;;
57467;SDS011;43311;51.196;7.518;2023-07-30T12:01:30;4.00;;;1.48;;
57467;SDS011;43311;51.196;7.518;2023-07-30T12:03:59;5.68;;;1.45;;
57467;SDS011;43311;51.196;7.518;2023-07-30T12:06:41;5.15;;;1.50;;
57467;SDS011;43311;51.196;7.518;2023-07-30T12:09:20;5.07;;;1.50;;
57467;SDS011;43311;51.196;7.518;2023-07-30T12:11:59;5.63;;;1.50;;
57467;SDS011;43311;51.196;7.518;2023-07-30T12:14:29;8.25;;;2.03;;
57467;SDS011;43311;51.196;7.518;2023-07-30T12:17:08;6.43;;;1.48;;
57467;SDS011;43311;51.196;7.518;2023-07-30T12:19:33;4.53;;;1.20;;
57467;SDS011;43311;51.196;7.518;2023-07-30T12:22:01;5.82;;;1.55;;
57467;SDS011;43311;51.196;7.518;2023-07-30T12:24:27;4.97;;;1.60;;
57467;SDS011;43311;51.196;7.518;2023-07-30T12:26:52;4.70;;;1.75;;
57467;SDS011;43311;51.196;7.518;2023-07-30T12:29:17;6.72;;;1.50;;
57467;SDS011;43311;51.196;7.518;2023-07-30T12:31:43;4.10;;;1.42;;
57467;SDS011;43311;51.196;7.518;2023-07-30T12:34:09;4.40;;;1.48;;
57467;SDS011;43311;51.196;7.518;2023-07-30T12:36:35;6.00;;;1.10;;
57467;SDS011;43311;51.196;7.518;2023-07-30T12:39:00;9.23;;;1.50;;
57467;SDS011;43311;51.196;7.518;2023-07-30T12:41:25;11.85;;;2.65;;
57467;SDS011;43311;51.196;7.518;2023-07-30T12:43:54;5.75;;;1.20;;
57467;SDS011;43311;51.196;7.518;2023-07-30T12:46:24;4.40;;;1.13;;
57467;SDS011;43311;51.196;7.518;2023-07-30T12:48:52;5.88;;;1.40;;
57467;SDS011;43311;51.196;7.518;2023-07-30T12:51:18;6.90;;;1.40;;
57467;SDS011;43311;51.196;7.518;2023-07-30T12:53:43;5.75;;;1.00;;
57467;SDS011;43311;51.196;7.518;2023-07-30T12:56:08;5.57;;;1.20;;
57467;SDS011;43311;51.196;7.518;2023-07-30T12:58:34;6.13;;;1.33;;
57467;SDS011;43311;51.196;7.518;2023-07-30T13:00:59;6.40;;;1.65;;
57467;SDS011;43311;51.196;7.518;2023-07-30T13:03:25;5.45;;;1.48;;
57467;SDS011;43311;51.196;7.518;2023-07-30T13:05:50;8.55;;;1.85;;
57467;SDS011;43311;51.196;7.518;2023-07-30T13:08:15;7.30;;;1.30;;
57467;SDS011;43311;51.196;7.518;2023-07-30T13:10:41;3.60;;;1.10;;
57467;SDS011;43311;51.196;7.518;2023-07-30T13:13:07;6.15;;;1.10;;
57467;SDS011;43311;51.196;7.518;2023-07-30T13:15:32;3.92;;;1.17;;
57467;SDS011;43311;51.196;7.518;2023-07-30T13:17:57;5.53;;;1.00;;
57467;SDS011;43311;51.196;7.518;2023-07-30T13:20:23;6.50;;;1.42;;
57467;SDS011;43311;51.196;7.518;2023-07-30T13:22:49;5.13;;;1.13;;
57467;SDS011;43311;51.196;7.518;2023-07-30T13:25:15;4.97;;;0.88;;
57467;SDS011;43311;51.196;7.518;2023-07-30T13:27:40;3.47;;;0.80;;
57467;SDS011;43311;51.196;7.518;2023-07-30T13:30:06;7.20;;;1.10;;
57467;SDS011;43311;51.196;7.518;2023-07-30T13:32:32;5.63;;;1.35;;
57467;SDS011;43311;51.196;7.518;2023-07-30T13:34:57;5.47;;;0.93;;
57467;SDS011;43311;51.196;7.518;2023-07-30T13:37:22;6.90;;;1.25;;
57467;SDS011;43311;51.196;7.518;2023-07-30T13:39:48;4.95;;;1.20;;
57467;SDS011;43311;51.196;7.518;2023-07-30T13:42:13;4.03;;;1.08;;
57467;SDS011;43311;51.196;7.518;2023-07-30T13:44:39;9.05;;;1.60;;
57467;SDS011;43311;51.196;7.518;2023-07-30T13:47:04;6.70;;;2.38;;
57467;SDS011;43311;51.196;7.518;2023-07-30T13:49:30;8.25;;;0.93;;
57467;SDS011;43311;51.196;7.518;2023-07-30T13:51:55;4.90;;;1.05;;
57467;SDS011;43311;51.196;7.518;2023-07-30T13:54:20;5.15;;;1.20;;
57467;SDS011;43311;51.196;7.518;2023-07-30T13:56:46;6.35;;;1.33;;
57467;SDS011;43311;51.196;7.518;2023-07-30T13:59:11;6.20;;;1.15;;
57467;SDS011;43311;51.196;7.518;2023-07-30T14:01:36;4.40;;;1.23;;
57467;SDS011;43311;51.196;7.518;2023-07-30T14:04:02;6.75;;;1.45;;
57467;SDS011;43311;51.196;7.518;2023-07-30T14:06:27;9.18;;;1.52;;
57467;SDS011;43311;51.196;7.518;2023-07-30T14:08:54;7.95;;;1.77;;
57467;SDS011;43311;51.196;7.518;2023-07-30T14:11:19;2.83;;;1.00;;
57467;SDS011;43311;51.196;7.518;2023-07-30T14:13:44;3.85;;;1.13;;
57467;SDS011;43311;51.196;7.518;2023-07-30T14:16:10;6.30;;;1.52;;
57467;SDS011;43311;51.196;7.518;2023-07-30T14:18:35;6.95;;;1.27;;
57467;SDS011;43311;51.196;7.518;2023-07-30T14:21:01;5.80;;;1.17;;
57467;SDS011;43311;51.196;7.518;2023-07-30T14:23:27;6.78;;;1.58;;
57467;SDS011;43311;51.196;7.518;2023-07-30T14:25:53;2.67;;;1.15;;
57467;SDS011;43311;51.196;7.518;2023-07-30T14:28:18;7.15;;;1.77;;
57467;SDS011;43311;51.196;7.518;2023-07-30T14:30:43;4.93;;;1.38;;
57467;SDS011;43311;51.196;7.518;2023-07-30T14:33:13;4.13;;;1.13;;
57467;SDS011;43311;51.196;7.518;2023-07-30T14:35:39;5.15;;;1.35;;
57467;SDS011;43311;51.196;7.518;2023-07-30T14:38:05;4.57;;;1.55;;
57467;SDS011;43311;51.196;7.518;2023-07-30T14:40:31;2.83;;;1.17;;
57467;SDS011;43311;51.196;7.518;2023-07-30T14:42:57;5.43;;;1.40;;
57467;SDS011;43311;51.196;7.518;2023-07-30T14:45:22;7.30;;;1.45;;
57467;SDS011;43311;51.196;7.518;2023-07-30T14:47:48;4.80;;;0.93;;
57467;SDS011;43311;51.196;7.518;2023-07-30T14:50:13;6.60;;;1.05;;